ELY362 LOWW-LLBG
Flight info
| Callsign | ELY362 |
|---|---|
| Flight time | 2h 56m |
| Altitude | 35000 |
| Route | ADAMA2C/29 ADAMA DCT VAMOG DCT KEROP DCT NISVA N131 RODIP/N0450F370 UN131 KULAR UT39 TOMBI DCT IDAKU L35 PIKOG L609 ZUKKO |
| Aircraft | B738/M-SDE2E3FGHIRWXY/LB1 |
Departure
| Time | 2026-05-07 19:05 |
|---|---|
| Airport | Vienna International Airport (LOWW) |
Arrival
| Time | 2026-05-07 22:02 |
|---|---|
| Airport | Ben Gurion International Airport (LLBG) |
| Time | Latitude | Longitude | Altitude | Speed | Heading |
|---|---|---|---|---|---|
| 2026-05-07 18:47 | 48.11936 | 16.55808 | 608 ft | 0 kts | 296° |
| 2026-05-07 18:55 | 48.11932 | 16.55820 | 619 ft | 4 kts | 297° |
| 2026-05-07 18:55 | 48.11918 | 16.55854 | 623 ft | 4 kts | 308° |
| 2026-05-07 18:55 | 48.11899 | 16.55882 | 608 ft | 4 kts | 330° |
| 2026-05-07 18:55 | 48.11878 | 16.55890 | 608 ft | 2 kts | 22° |
| 2026-05-07 18:56 | 48.11876 | 16.55889 | 608 ft | 0 kts | 24° |
| 2026-05-07 18:58 | 48.11890 | 16.55879 | 608 ft | 5 kts | 306° |
| 2026-05-07 18:58 | 48.11880 | 16.55842 | 618 ft | 8 kts | 220° |
| 2026-05-07 18:58 | 48.11812 | 16.55840 | 608 ft | 11 kts | 193° |
| 2026-05-07 18:59 | 48.11732 | 16.55783 | 620 ft | 21 kts | 206° |
| 2026-05-07 18:59 | 48.11697 | 16.55784 | 617 ft | 8 kts | 147° |
| 2026-05-07 18:59 | 48.11649 | 16.55918 | 614 ft | 23 kts | 116° |
| 2026-05-07 18:59 | 48.11579 | 16.56132 | 608 ft | 22 kts | 117° |
| 2026-05-07 19:00 | 48.11515 | 16.56332 | 617 ft | 21 kts | 115° |
| 2026-05-07 19:00 | 48.11454 | 16.56523 | 614 ft | 20 kts | 116° |
| 2026-05-07 19:00 | 48.11393 | 16.56710 | 617 ft | 20 kts | 115° |
| 2026-05-07 19:00 | 48.11335 | 16.56892 | 620 ft | 19 kts | 115° |
| 2026-05-07 19:01 | 48.11277 | 16.57067 | 611 ft | 18 kts | 116° |
| 2026-05-07 19:01 | 48.11220 | 16.57236 | 612 ft | 18 kts | 117° |
| 2026-05-07 19:01 | 48.11158 | 16.57419 | 608 ft | 20 kts | 116° |
| 2026-05-07 19:01 | 48.11097 | 16.57611 | 619 ft | 21 kts | 125° |
| 2026-05-07 19:02 | 48.11022 | 16.57631 | 608 ft | 1 kts | 206° |
| 2026-05-07 19:04 | 48.11014 | 16.57625 | 608 ft | 9 kts | 206° |
| 2026-05-07 19:04 | 48.10936 | 16.57508 | 608 ft | 18 kts | 265° |
| 2026-05-07 19:04 | 48.11015 | 16.57226 | 608 ft | 61 kts | 295° |
| 2026-05-07 19:05 | 48.11317 | 16.56299 | 608 ft | 134 kts | 296° |
| 2026-05-07 19:05 | 48.11790 | 16.54745 | 752 ft | 185 kts | 290° |
| 2026-05-07 19:05 | 48.12357 | 16.52939 | 1547 ft | 197 kts | 293° |
| 2026-05-07 19:05 | 48.12646 | 16.51020 | 2571 ft | 191 kts | 258° |
| 2026-05-07 19:06 | 48.11970 | 16.49315 | 3184 ft | 207 kts | 217° |
| 2026-05-07 19:06 | 48.08952 | 16.47604 | 3926 ft | 257 kts | 202° |
| 2026-05-07 19:06 | 48.07173 | 16.47092 | 4607 ft | 268 kts | 175° |
| 2026-05-07 19:07 | 48.05313 | 16.47552 | 5420 ft | 273 kts | 172° |
| 2026-05-07 19:07 | 48.04057 | 16.47843 | 5924 ft | 277 kts | 173° |
| 2026-05-07 19:07 | 48.02133 | 16.48241 | 6707 ft | 281 kts | 174° |
| 2026-05-07 19:07 | 47.99663 | 16.49540 | 7705 ft | 291 kts | 140° |
| 2026-05-07 19:08 | 47.98791 | 16.51060 | 8190 ft | 293 kts | 118° |
| 2026-05-07 19:08 | 47.98155 | 16.53935 | 8979 ft | 293 kts | 95° |
| 2026-05-07 19:08 | 47.98067 | 16.56982 | 9750 ft | 295 kts | 88° |
| 2026-05-07 19:08 | 47.98107 | 16.60079 | 10416 ft | 302 kts | 87° |
| 2026-05-07 19:09 | 47.98176 | 16.63286 | 10906 ft | 315 kts | 87° |
| 2026-05-07 19:09 | 47.98242 | 16.66552 | 11563 ft | 321 kts | 88° |
| 2026-05-07 19:09 | 47.98299 | 16.69874 | 12353 ft | 321 kts | 88° |
| 2026-05-07 19:09 | 47.98347 | 16.73228 | 13061 ft | 325 kts | 89° |
| 2026-05-07 19:10 | 47.98389 | 16.76637 | 13685 ft | 331 kts | 89° |
| 2026-05-07 19:10 | 47.98425 | 16.80096 | 14351 ft | 335 kts | 90° |
| 2026-05-07 19:10 | 47.98455 | 16.83289 | 14964 ft | 338 kts | 90° |
| 2026-05-07 19:10 | 47.98486 | 16.86819 | 15582 ft | 342 kts | 90° |
| 2026-05-07 19:11 | 47.98515 | 16.90393 | 16206 ft | 346 kts | 91° |
| 2026-05-07 19:11 | 47.98542 | 16.93964 | 16781 ft | 351 kts | 91° |
| 2026-05-07 19:11 | 47.98559 | 16.97623 | 17375 ft | 354 kts | 95° |
| 2026-05-07 19:11 | 47.98061 | 17.01196 | 17915 ft | 351 kts | 117° |
| 2026-05-07 19:12 | 47.96735 | 17.04199 | 18507 ft | 346 kts | 137° |
| 2026-05-07 19:12 | 47.95071 | 17.06796 | 19146 ft | 346 kts | 138° |
| 2026-05-07 19:12 | 47.93383 | 17.09379 | 19710 ft | 349 kts | 139° |
| 2026-05-07 19:12 | 47.91671 | 17.11993 | 20269 ft | 352 kts | 139° |
| 2026-05-07 19:13 | 47.89979 | 17.14588 | 20829 ft | 355 kts | 139° |
| 2026-05-07 19:13 | 47.88257 | 17.17240 | 21375 ft | 357 kts | 139° |
| 2026-05-07 19:13 | 47.86521 | 17.19924 | 21912 ft | 360 kts | 139° |
| 2026-05-07 19:13 | 47.84781 | 17.22622 | 22430 ft | 362 kts | 139° |
| 2026-05-07 19:14 | 47.83030 | 17.25339 | 22923 ft | 365 kts | 139° |
| 2026-05-07 19:14 | 47.81269 | 17.28071 | 23422 ft | 366 kts | 139° |
| 2026-05-07 19:14 | 47.79497 | 17.30821 | 23908 ft | 368 kts | 139° |
| 2026-05-07 19:14 | 47.77719 | 17.33580 | 24367 ft | 371 kts | 139° |
| 2026-05-07 19:15 | 47.75945 | 17.36329 | 24811 ft | 373 kts | 140° |
| 2026-05-07 19:15 | 47.74138 | 17.39126 | 25249 ft | 375 kts | 140° |
| 2026-05-07 19:15 | 47.72321 | 17.41936 | 25669 ft | 378 kts | 140° |
| 2026-05-07 19:15 | 47.70499 | 17.44751 | 26096 ft | 379 kts | 140° |
| 2026-05-07 19:16 | 47.68663 | 17.47586 | 26509 ft | 382 kts | 140° |
| 2026-05-07 19:16 | 47.66817 | 17.50432 | 26895 ft | 384 kts | 140° |
| 2026-05-07 19:16 | 47.64958 | 17.53294 | 27248 ft | 387 kts | 140° |
| 2026-05-07 19:16 | 47.63087 | 17.56171 | 27613 ft | 389 kts | 141° |
| 2026-05-07 19:17 | 47.61207 | 17.59059 | 27991 ft | 390 kts | 141° |
| 2026-05-07 19:17 | 47.59318 | 17.61960 | 28346 ft | 392 kts | 141° |
| 2026-05-07 19:17 | 47.57414 | 17.64881 | 28698 ft | 394 kts | 141° |
| 2026-05-07 19:17 | 47.55505 | 17.67805 | 29026 ft | 396 kts | 141° |
| 2026-05-07 19:18 | 47.53584 | 17.70744 | 29362 ft | 397 kts | 141° |
| 2026-05-07 19:18 | 47.51660 | 17.73683 | 29686 ft | 399 kts | 141° |
| 2026-05-07 19:18 | 47.49748 | 17.76601 | 29971 ft | 400 kts | 141° |
| 2026-05-07 19:18 | 47.47798 | 17.79576 | 30257 ft | 402 kts | 141° |
| 2026-05-07 19:19 | 47.45844 | 17.82548 | 30537 ft | 405 kts | 141° |
| 2026-05-07 19:19 | 47.43872 | 17.85548 | 30752 ft | 408 kts | 141° |
| 2026-05-07 19:19 | 47.41886 | 17.88565 | 31005 ft | 410 kts | 141° |
| 2026-05-07 19:19 | 47.39888 | 17.91596 | 31252 ft | 413 kts | 141° |
| 2026-05-07 19:20 | 47.37873 | 17.94649 | 31469 ft | 416 kts | 141° |
| 2026-05-07 19:20 | 47.35848 | 17.97715 | 31698 ft | 418 kts | 141° |
| 2026-05-07 19:20 | 47.33814 | 18.00791 | 31913 ft | 421 kts | 141° |
| 2026-05-07 19:20 | 47.31770 | 18.03879 | 32178 ft | 421 kts | 141° |
| 2026-05-07 19:21 | 47.29741 | 18.06942 | 32389 ft | 423 kts | 141° |
| 2026-05-07 19:21 | 47.27676 | 18.10053 | 32579 ft | 426 kts | 141° |
| 2026-05-07 19:21 | 47.25597 | 18.13185 | 32765 ft | 428 kts | 141° |
| 2026-05-07 19:21 | 47.23510 | 18.16323 | 32970 ft | 430 kts | 141° |
| 2026-05-07 19:22 | 47.21405 | 18.19486 | 33184 ft | 432 kts | 141° |
| 2026-05-07 19:22 | 47.19297 | 18.22646 | 33360 ft | 434 kts | 141° |
| 2026-05-07 19:22 | 47.17174 | 18.25826 | 33514 ft | 436 kts | 141° |
| 2026-05-07 19:22 | 47.15044 | 18.29013 | 33690 ft | 438 kts | 141° |
| 2026-05-07 19:23 | 47.12905 | 18.32210 | 33876 ft | 439 kts | 141° |
| 2026-05-07 19:23 | 47.10786 | 18.35373 | 34055 ft | 441 kts | 141° |
| 2026-05-07 19:23 | 47.08632 | 18.38585 | 34182 ft | 443 kts | 141° |
| 2026-05-07 19:23 | 47.06462 | 18.41815 | 34330 ft | 445 kts | 141° |
| 2026-05-07 19:24 | 47.04283 | 18.45054 | 34477 ft | 447 kts | 141° |
| 2026-05-07 19:24 | 47.02090 | 18.48311 | 34638 ft | 448 kts | 140° |
| 2026-05-07 19:24 | 46.99892 | 18.51573 | 34805 ft | 449 kts | 140° |
| 2026-05-07 19:24 | 46.97694 | 18.54830 | 34967 ft | 451 kts | 140° |
| 2026-05-07 19:25 | 46.93242 | 18.61413 | 35013 ft | 457 kts | 140° |
| 2026-05-07 19:25 | 46.88745 | 18.68044 | 35019 ft | 459 kts | 140° |
| 2026-05-07 19:26 | 46.84278 | 18.74623 | 35014 ft | 459 kts | 140° |
| 2026-05-07 19:26 | 46.79778 | 18.81227 | 35022 ft | 459 kts | 140° |
| 2026-05-07 19:27 | 46.75268 | 18.87829 | 35017 ft | 459 kts | 141° |
| 2026-05-07 19:27 | 46.70766 | 18.94409 | 35017 ft | 458 kts | 140° |
| 2026-05-07 19:28 | 46.66271 | 19.00956 | 35020 ft | 457 kts | 140° |
| 2026-05-07 19:28 | 46.61804 | 19.07445 | 35018 ft | 456 kts | 140° |
| 2026-05-07 19:29 | 46.57303 | 19.13968 | 35017 ft | 455 kts | 140° |
| 2026-05-07 19:29 | 46.52835 | 19.20429 | 35016 ft | 454 kts | 140° |
| 2026-05-07 19:30 | 46.48344 | 19.26903 | 35019 ft | 454 kts | 140° |
| 2026-05-07 19:30 | 46.43849 | 19.33371 | 35017 ft | 454 kts | 140° |
| 2026-05-07 19:31 | 46.39362 | 19.39812 | 35025 ft | 454 kts | 140° |
| 2026-05-07 19:31 | 46.34870 | 19.46245 | 35019 ft | 453 kts | 140° |
| 2026-05-07 19:32 | 46.30409 | 19.52617 | 35019 ft | 453 kts | 140° |
| 2026-05-07 19:32 | 46.25913 | 19.59024 | 35018 ft | 453 kts | 140° |
| 2026-05-07 19:33 | 46.21416 | 19.65420 | 35019 ft | 454 kts | 140° |
| 2026-05-07 19:33 | 46.16786 | 19.71575 | 35011 ft | 449 kts | 148° |
| 2026-05-07 19:34 | 46.11712 | 19.76813 | 35017 ft | 448 kts | 150° |
| 2026-05-07 19:34 | 46.06627 | 19.81920 | 35017 ft | 449 kts | 149° |
| 2026-05-07 19:35 | 46.01515 | 19.87105 | 35024 ft | 449 kts | 149° |
| 2026-05-07 19:35 | 45.96418 | 19.92315 | 35017 ft | 450 kts | 149° |
| 2026-05-07 19:36 | 45.91319 | 19.97536 | 35018 ft | 450 kts | 149° |
| 2026-05-07 19:36 | 45.86219 | 20.02750 | 35017 ft | 450 kts | 149° |
| 2026-05-07 19:37 | 45.81107 | 20.07959 | 35018 ft | 450 kts | 149° |
| 2026-05-07 19:37 | 45.76022 | 20.13126 | 35018 ft | 451 kts | 149° |
| 2026-05-07 19:38 | 45.70897 | 20.18324 | 35019 ft | 450 kts | 149° |
| 2026-05-07 19:38 | 45.65774 | 20.23506 | 35018 ft | 451 kts | 149° |
| 2026-05-07 19:39 | 45.60649 | 20.28681 | 35017 ft | 451 kts | 149° |
| 2026-05-07 19:39 | 45.55550 | 20.33817 | 35021 ft | 451 kts | 149° |
| 2026-05-07 19:40 | 45.50416 | 20.38974 | 35016 ft | 452 kts | 149° |
| 2026-05-07 19:40 | 45.45272 | 20.44131 | 35018 ft | 452 kts | 149° |
| 2026-05-07 19:41 | 45.40112 | 20.49294 | 35018 ft | 453 kts | 149° |
| 2026-05-07 19:41 | 45.34938 | 20.54458 | 35018 ft | 454 kts | 149° |
| 2026-05-07 19:42 | 45.29753 | 20.59620 | 35020 ft | 455 kts | 149° |
| 2026-05-07 19:42 | 45.24598 | 20.64744 | 35041 ft | 456 kts | 149° |
| 2026-05-07 19:43 | 45.19392 | 20.69905 | 35049 ft | 457 kts | 149° |
| 2026-05-07 19:43 | 45.14170 | 20.75067 | 35049 ft | 458 kts | 149° |
| 2026-05-07 19:44 | 45.08934 | 20.80233 | 35050 ft | 459 kts | 149° |
| 2026-05-07 19:44 | 45.03678 | 20.85407 | 35045 ft | 460 kts | 149° |
| 2026-05-07 19:45 | 44.98450 | 20.90543 | 35045 ft | 461 kts | 149° |
| 2026-05-07 19:45 | 44.93180 | 20.95706 | 35048 ft | 461 kts | 149° |
| 2026-05-07 19:46 | 44.87897 | 21.00873 | 35048 ft | 462 kts | 149° |
| 2026-05-07 19:46 | 44.82601 | 21.06040 | 35047 ft | 463 kts | 149° |
| 2026-05-07 19:47 | 44.77305 | 21.11196 | 35044 ft | 463 kts | 149° |
| 2026-05-07 19:47 | 44.72005 | 21.16345 | 35044 ft | 463 kts | 149° |
| 2026-05-07 19:48 | 44.66739 | 21.21448 | 35044 ft | 462 kts | 149° |
| 2026-05-07 19:48 | 44.61438 | 21.26571 | 35044 ft | 462 kts | 149° |
| 2026-05-07 19:49 | 44.56144 | 21.31678 | 35053 ft | 462 kts | 149° |
| 2026-05-07 19:49 | 44.50841 | 21.36783 | 35055 ft | 461 kts | 149° |
| 2026-05-07 19:50 | 44.45552 | 21.41866 | 35056 ft | 461 kts | 149° |
| 2026-05-07 19:50 | 44.40250 | 21.46943 | 35050 ft | 461 kts | 149° |
| 2026-05-07 19:51 | 44.34971 | 21.51988 | 35059 ft | 461 kts | 149° |
| 2026-05-07 19:51 | 44.29632 | 21.57080 | 35057 ft | 462 kts | 149° |
| 2026-05-07 19:52 | 44.24319 | 21.62135 | 35059 ft | 462 kts | 149° |
| 2026-05-07 19:52 | 44.19035 | 21.67153 | 35049 ft | 462 kts | 149° |
| 2026-05-07 19:53 | 44.13718 | 21.72192 | 35059 ft | 462 kts | 149° |
| 2026-05-07 19:53 | 44.08409 | 21.77213 | 35064 ft | 461 kts | 149° |
| 2026-05-07 19:54 | 44.03091 | 21.82229 | 35065 ft | 462 kts | 149° |
| 2026-05-07 19:54 | 43.98676 | 21.86385 | 35064 ft | 462 kts | 149° |
| 2026-05-07 19:55 | 43.93344 | 21.91394 | 35063 ft | 462 kts | 149° |
| 2026-05-07 19:55 | 43.87149 | 21.97201 | 35073 ft | 462 kts | 149° |
| 2026-05-07 19:56 | 43.82674 | 22.01386 | 35076 ft | 463 kts | 149° |
| 2026-05-07 19:56 | 43.77330 | 22.06375 | 35070 ft | 463 kts | 149° |
| 2026-05-07 19:57 | 43.72015 | 22.11326 | 35070 ft | 463 kts | 149° |
| 2026-05-07 19:57 | 43.66666 | 22.16295 | 35082 ft | 463 kts | 149° |
| 2026-05-07 19:58 | 43.61305 | 22.21266 | 35076 ft | 465 kts | 149° |
| 2026-05-07 19:58 | 43.55925 | 22.26244 | 35077 ft | 465 kts | 149° |
| 2026-05-07 19:59 | 43.50544 | 22.31212 | 35079 ft | 465 kts | 149° |
| 2026-05-07 19:59 | 43.45163 | 22.36169 | 35075 ft | 465 kts | 150° |
| 2026-05-07 20:00 | 43.39803 | 22.41096 | 35071 ft | 466 kts | 150° |
| 2026-05-07 20:00 | 43.34411 | 22.46042 | 35084 ft | 466 kts | 150° |
| 2026-05-07 20:01 | 43.29012 | 22.50983 | 35069 ft | 466 kts | 150° |
| 2026-05-07 20:01 | 43.23647 | 22.55883 | 35087 ft | 465 kts | 150° |
| 2026-05-07 20:02 | 43.18249 | 22.60802 | 35077 ft | 466 kts | 150° |
| 2026-05-07 20:02 | 43.12839 | 22.65722 | 35087 ft | 467 kts | 150° |
| 2026-05-07 20:03 | 43.07413 | 22.70647 | 35099 ft | 467 kts | 150° |
| 2026-05-07 20:03 | 43.01989 | 22.75560 | 35095 ft | 468 kts | 150° |
| 2026-05-07 20:04 | 42.96602 | 22.80593 | 35077 ft | 472 kts | 143° |
| 2026-05-07 20:04 | 42.91778 | 22.86655 | 35094 ft | 475 kts | 140° |
| 2026-05-07 20:05 | 42.87012 | 22.92886 | 35095 ft | 475 kts | 140° |
| 2026-05-07 20:05 | 42.82194 | 22.99106 | 35098 ft | 475 kts | 140° |
| 2026-05-07 20:06 | 42.77413 | 23.05205 | 35099 ft | 474 kts | 140° |
| 2026-05-07 20:06 | 42.72588 | 23.11326 | 35102 ft | 474 kts | 141° |
| 2026-05-07 20:07 | 42.67768 | 23.17431 | 35097 ft | 473 kts | 141° |
| 2026-05-07 20:07 | 42.62957 | 23.23517 | 35110 ft | 471 kts | 141° |
| 2026-05-07 20:08 | 42.58154 | 23.29580 | 35087 ft | 471 kts | 141° |
| 2026-05-07 20:08 | 42.53386 | 23.35588 | 35095 ft | 469 kts | 141° |
| 2026-05-07 20:09 | 42.48597 | 23.41600 | 35104 ft | 469 kts | 141° |
| 2026-05-07 20:10 | 42.41406 | 23.50610 | 35105 ft | 468 kts | 141° |
| 2026-05-07 20:10 | 42.36617 | 23.56597 | 35101 ft | 468 kts | 141° |
| 2026-05-07 20:11 | 42.31832 | 23.62565 | 35102 ft | 467 kts | 141° |
| 2026-05-07 20:11 | 42.27035 | 23.68489 | 35096 ft | 466 kts | 141° |
| 2026-05-07 20:12 | 42.22210 | 23.74337 | 35101 ft | 465 kts | 142° |
| 2026-05-07 20:12 | 42.17422 | 23.80131 | 35097 ft | 465 kts | 142° |
| 2026-05-07 20:13 | 42.12610 | 23.85956 | 35096 ft | 464 kts | 142° |
| 2026-05-07 20:13 | 42.07794 | 23.91780 | 35103 ft | 465 kts | 142° |
| 2026-05-07 20:14 | 42.02980 | 23.97589 | 35095 ft | 465 kts | 142° |
| 2026-05-07 20:14 | 41.98182 | 24.03364 | 35082 ft | 465 kts | 142° |
| 2026-05-07 20:15 | 41.93365 | 24.09156 | 35076 ft | 465 kts | 142° |
| 2026-05-07 20:15 | 41.88541 | 24.14947 | 35096 ft | 465 kts | 142° |
| 2026-05-07 20:16 | 41.83699 | 24.20748 | 35089 ft | 465 kts | 142° |
| 2026-05-07 20:16 | 41.78898 | 24.26489 | 35086 ft | 466 kts | 142° |
| 2026-05-07 20:17 | 41.74043 | 24.32280 | 35080 ft | 467 kts | 142° |
| 2026-05-07 20:17 | 41.69168 | 24.38086 | 35414 ft | 469 kts | 142° |
| 2026-05-07 20:17 | 41.66737 | 24.40976 | 35669 ft | 468 kts | 142° |
| 2026-05-07 20:18 | 41.64291 | 24.43880 | 35722 ft | 472 kts | 142° |
| 2026-05-07 20:18 | 41.59363 | 24.49719 | 35867 ft | 478 kts | 142° |
| 2026-05-07 20:18 | 41.56867 | 24.52673 | 36024 ft | 480 kts | 142° |
| 2026-05-07 20:19 | 41.54361 | 24.55637 | 36142 ft | 482 kts | 142° |
| 2026-05-07 20:19 | 41.49318 | 24.61594 | 36309 ft | 487 kts | 142° |
| 2026-05-07 20:20 | 41.44210 | 24.67614 | 36481 ft | 492 kts | 142° |
| 2026-05-07 20:20 | 41.39061 | 24.73684 | 36753 ft | 494 kts | 142° |
| 2026-05-07 20:20 | 41.36498 | 24.76719 | 36956 ft | 493 kts | 142° |
| 2026-05-07 20:21 | 41.33966 | 24.79720 | 37105 ft | 493 kts | 142° |
| 2026-05-07 20:21 | 41.28815 | 24.85810 | 37100 ft | 496 kts | 142° |
| 2026-05-07 20:22 | 41.23642 | 24.91913 | 37091 ft | 497 kts | 142° |
| 2026-05-07 20:22 | 41.18456 | 24.98016 | 37107 ft | 498 kts | 142° |
| 2026-05-07 20:23 | 41.13261 | 25.04113 | 37100 ft | 499 kts | 142° |
| 2026-05-07 20:23 | 41.08051 | 25.10213 | 37097 ft | 499 kts | 142° |
| 2026-05-07 20:24 | 41.02873 | 25.16268 | 37098 ft | 500 kts | 142° |
| 2026-05-07 20:24 | 40.97660 | 25.22351 | 37095 ft | 498 kts | 142° |
| 2026-05-07 20:25 | 40.92498 | 25.28363 | 37095 ft | 491 kts | 142° |
| 2026-05-07 20:25 | 40.87377 | 25.34308 | 37094 ft | 489 kts | 142° |
| 2026-05-07 20:26 | 40.82279 | 25.40217 | 37104 ft | 487 kts | 142° |
| 2026-05-07 20:26 | 40.77334 | 25.46340 | 37104 ft | 489 kts | 134° |
| 2026-05-07 20:27 | 40.72892 | 25.53203 | 37120 ft | 495 kts | 132° |
| 2026-05-07 20:27 | 40.68435 | 25.60201 | 37119 ft | 501 kts | 132° |
| 2026-05-07 20:28 | 40.63906 | 25.67170 | 37115 ft | 504 kts | 133° |
| 2026-05-07 20:28 | 40.59302 | 25.74176 | 37110 ft | 506 kts | 133° |
| 2026-05-07 20:29 | 40.54695 | 25.81172 | 37113 ft | 506 kts | 133° |
| 2026-05-07 20:29 | 40.50090 | 25.88163 | 37106 ft | 504 kts | 133° |
| 2026-05-07 20:30 | 40.45483 | 25.95080 | 37118 ft | 502 kts | 133° |
| 2026-05-07 20:30 | 40.40895 | 26.01924 | 37118 ft | 500 kts | 133° |
| 2026-05-07 20:31 | 40.36303 | 26.08763 | 37131 ft | 498 kts | 133° |
| 2026-05-07 20:31 | 40.31728 | 26.15570 | 37131 ft | 495 kts | 133° |
| 2026-05-07 20:32 | 40.27196 | 26.22298 | 37139 ft | 494 kts | 133° |
| 2026-05-07 20:32 | 40.22658 | 26.29022 | 37152 ft | 492 kts | 133° |
| 2026-05-07 20:33 | 40.18110 | 26.35749 | 37156 ft | 493 kts | 133° |
| 2026-05-07 20:33 | 40.13554 | 26.42466 | 37161 ft | 493 kts | 134° |
| 2026-05-07 20:34 | 40.08786 | 26.48825 | 37168 ft | 493 kts | 137° |
| 2026-05-07 20:34 | 40.03837 | 26.55048 | 37159 ft | 494 kts | 138° |
| 2026-05-07 20:35 | 39.98893 | 26.61298 | 37157 ft | 495 kts | 137° |
| 2026-05-07 20:35 | 39.93959 | 26.67593 | 37149 ft | 496 kts | 137° |
| 2026-05-07 20:36 | 39.89018 | 26.73898 | 37165 ft | 497 kts | 137° |
| 2026-05-07 20:36 | 39.84066 | 26.80203 | 37162 ft | 499 kts | 137° |
| 2026-05-07 20:37 | 39.79125 | 26.86477 | 37165 ft | 500 kts | 137° |
| 2026-05-07 20:37 | 39.74124 | 26.92765 | 37164 ft | 501 kts | 138° |
| 2026-05-07 20:38 | 39.69055 | 26.98977 | 37164 ft | 500 kts | 138° |
| 2026-05-07 20:38 | 39.63989 | 27.05168 | 37147 ft | 499 kts | 138° |
| 2026-05-07 20:39 | 39.58940 | 27.11350 | 37153 ft | 497 kts | 138° |
| 2026-05-07 20:39 | 39.53920 | 27.17492 | 37156 ft | 495 kts | 138° |
| 2026-05-07 20:40 | 39.49004 | 27.23636 | 37148 ft | 494 kts | 133° |
| 2026-05-07 20:40 | 39.44647 | 27.30487 | 37150 ft | 492 kts | 128° |
| 2026-05-07 20:41 | 39.40383 | 27.37387 | 37155 ft | 490 kts | 129° |
| 2026-05-07 20:41 | 39.36054 | 27.44170 | 37157 ft | 488 kts | 130° |
| 2026-05-07 20:42 | 39.31718 | 27.50911 | 37153 ft | 487 kts | 130° |
| 2026-05-07 20:42 | 39.28116 | 27.56503 | 37158 ft | 487 kts | 130° |
| 2026-05-07 20:43 | 39.23081 | 27.64317 | 37159 ft | 487 kts | 130° |
| 2026-05-07 20:43 | 39.19439 | 27.69959 | 37160 ft | 488 kts | 130° |
| 2026-05-07 20:44 | 39.15112 | 27.76648 | 37161 ft | 489 kts | 130° |
| 2026-05-07 20:44 | 39.10743 | 27.83389 | 37158 ft | 491 kts | 130° |
| 2026-05-07 20:45 | 39.06355 | 27.90140 | 37158 ft | 492 kts | 130° |
| 2026-05-07 20:45 | 39.01953 | 27.96891 | 37160 ft | 493 kts | 130° |
| 2026-05-07 20:46 | 38.97544 | 28.03645 | 37168 ft | 493 kts | 130° |
| 2026-05-07 20:46 | 38.93129 | 28.10394 | 37159 ft | 492 kts | 130° |
| 2026-05-07 20:47 | 38.88750 | 28.17074 | 37154 ft | 490 kts | 130° |
| 2026-05-07 20:47 | 38.84364 | 28.23750 | 37147 ft | 488 kts | 130° |
| 2026-05-07 20:48 | 38.79997 | 28.30385 | 37151 ft | 485 kts | 130° |
| 2026-05-07 20:48 | 38.75647 | 28.36982 | 37151 ft | 484 kts | 130° |
| 2026-05-07 20:49 | 38.71301 | 28.43557 | 37157 ft | 482 kts | 130° |
| 2026-05-07 20:49 | 38.66989 | 28.50066 | 37174 ft | 482 kts | 130° |
| 2026-05-07 20:50 | 38.62651 | 28.56606 | 37167 ft | 482 kts | 130° |
| 2026-05-07 20:50 | 38.58219 | 28.63059 | 37163 ft | 483 kts | 137° |
| 2026-05-07 20:51 | 38.52908 | 28.68271 | 37185 ft | 482 kts | 147° |
| 2026-05-07 20:51 | 38.47356 | 28.73109 | 37174 ft | 484 kts | 147° |
| 2026-05-07 20:52 | 38.41788 | 28.78001 | 37180 ft | 487 kts | 147° |
| 2026-05-07 20:52 | 38.36256 | 28.82924 | 37169 ft | 488 kts | 147° |
| 2026-05-07 20:53 | 38.30680 | 28.87896 | 37174 ft | 489 kts | 147° |
| 2026-05-07 20:53 | 38.25097 | 28.92868 | 37171 ft | 489 kts | 147° |
| 2026-05-07 20:54 | 38.19521 | 28.97820 | 37175 ft | 487 kts | 147° |
| 2026-05-07 20:54 | 38.13967 | 29.02741 | 37187 ft | 486 kts | 147° |
| 2026-05-07 20:55 | 38.08462 | 29.07610 | 37192 ft | 485 kts | 147° |
| 2026-05-07 20:55 | 38.02927 | 29.12496 | 37177 ft | 483 kts | 147° |
| 2026-05-07 20:56 | 37.97409 | 29.17357 | 37179 ft | 482 kts | 147° |
| 2026-05-07 20:56 | 37.91903 | 29.22200 | 37182 ft | 482 kts | 147° |
| 2026-05-07 20:57 | 37.86393 | 29.27039 | 37204 ft | 482 kts | 147° |
| 2026-05-07 20:57 | 37.80870 | 29.31875 | 37207 ft | 483 kts | 147° |
| 2026-05-07 20:58 | 37.75321 | 29.36721 | 37213 ft | 485 kts | 147° |
| 2026-05-07 20:58 | 37.69795 | 29.41538 | 37204 ft | 486 kts | 147° |
| 2026-05-07 20:59 | 37.64224 | 29.46389 | 37208 ft | 486 kts | 147° |
| 2026-05-07 20:59 | 37.58651 | 29.51235 | 37214 ft | 487 kts | 147° |
| 2026-05-07 21:00 | 37.53072 | 29.56076 | 37208 ft | 487 kts | 147° |
| 2026-05-07 21:00 | 37.47485 | 29.60914 | 37207 ft | 487 kts | 147° |
| 2026-05-07 21:01 | 37.41890 | 29.65749 | 37195 ft | 488 kts | 147° |
| 2026-05-07 21:01 | 37.36304 | 29.70572 | 37203 ft | 487 kts | 147° |
| 2026-05-07 21:02 | 37.30718 | 29.75388 | 37198 ft | 486 kts | 147° |
| 2026-05-07 21:02 | 37.25154 | 29.80194 | 37199 ft | 486 kts | 147° |
| 2026-05-07 21:03 | 37.19617 | 29.84971 | 37201 ft | 486 kts | 147° |
| 2026-05-07 21:03 | 37.14034 | 29.89778 | 37180 ft | 487 kts | 147° |
| 2026-05-07 21:04 | 37.08445 | 29.94571 | 37194 ft | 486 kts | 148° |
| 2026-05-07 21:04 | 37.02835 | 29.99354 | 37184 ft | 487 kts | 148° |
| 2026-05-07 21:05 | 36.97272 | 30.04088 | 37197 ft | 487 kts | 147° |
| 2026-05-07 21:05 | 36.91657 | 30.08863 | 37175 ft | 487 kts | 147° |
| 2026-05-07 21:06 | 36.86042 | 30.13631 | 37163 ft | 488 kts | 147° |
| 2026-05-07 21:06 | 36.80433 | 30.18386 | 37170 ft | 487 kts | 147° |
| 2026-05-07 21:07 | 36.74850 | 30.23118 | 37157 ft | 487 kts | 147° |
| 2026-05-07 21:07 | 36.69233 | 30.27874 | 37151 ft | 488 kts | 147° |
| 2026-05-07 21:08 | 36.63623 | 30.32615 | 37170 ft | 487 kts | 148° |
| 2026-05-07 21:08 | 36.58013 | 30.37345 | 37173 ft | 487 kts | 148° |
| 2026-05-07 21:09 | 36.52389 | 30.42082 | 37155 ft | 487 kts | 148° |
| 2026-05-07 21:09 | 36.46777 | 30.46799 | 37174 ft | 486 kts | 148° |
| 2026-05-07 21:10 | 36.41165 | 30.51505 | 37166 ft | 487 kts | 148° |
| 2026-05-07 21:10 | 36.35545 | 30.56214 | 37164 ft | 487 kts | 148° |
| 2026-05-07 21:11 | 36.29949 | 30.60894 | 37169 ft | 488 kts | 148° |
| 2026-05-07 21:11 | 36.21482 | 30.67954 | 37171 ft | 489 kts | 148° |
| 2026-05-07 21:12 | 36.15821 | 30.72667 | 37164 ft | 489 kts | 148° |
| 2026-05-07 21:12 | 36.10201 | 30.77339 | 37169 ft | 490 kts | 148° |
| 2026-05-07 21:13 | 36.04538 | 30.82037 | 37168 ft | 490 kts | 147° |
| 2026-05-07 21:13 | 35.99114 | 30.87140 | 37163 ft | 491 kts | 142° |
| 2026-05-07 21:14 | 35.93802 | 30.92464 | 37156 ft | 491 kts | 141° |
| 2026-05-07 21:14 | 35.88495 | 30.97774 | 37157 ft | 492 kts | 142° |
| 2026-05-07 21:15 | 35.83148 | 31.03055 | 37159 ft | 492 kts | 142° |
| 2026-05-07 21:15 | 35.77814 | 31.08289 | 37158 ft | 493 kts | 142° |
| 2026-05-07 21:16 | 35.72444 | 31.13547 | 37157 ft | 494 kts | 142° |
| 2026-05-07 21:16 | 35.67051 | 31.18821 | 37152 ft | 494 kts | 142° |
| 2026-05-07 21:17 | 35.61655 | 31.24090 | 37144 ft | 495 kts | 142° |
| 2026-05-07 21:17 | 35.56276 | 31.29331 | 37151 ft | 495 kts | 142° |
| 2026-05-07 21:18 | 35.50875 | 31.34588 | 37145 ft | 495 kts | 142° |
| 2026-05-07 21:18 | 35.45475 | 31.39832 | 37146 ft | 494 kts | 142° |
| 2026-05-07 21:19 | 35.40122 | 31.45020 | 37146 ft | 493 kts | 142° |
| 2026-05-07 21:19 | 35.34743 | 31.50226 | 37146 ft | 492 kts | 142° |
| 2026-05-07 21:20 | 35.29364 | 31.55425 | 37149 ft | 491 kts | 142° |
| 2026-05-07 21:20 | 35.24332 | 31.60281 | 37148 ft | 491 kts | 142° |
| 2026-05-07 21:21 | 35.18957 | 31.65457 | 37143 ft | 491 kts | 142° |
| 2026-05-07 21:21 | 35.13614 | 31.70592 | 37141 ft | 491 kts | 142° |
| 2026-05-07 21:22 | 35.08227 | 31.75763 | 37141 ft | 491 kts | 142° |
| 2026-05-07 21:22 | 35.02927 | 31.80842 | 37138 ft | 491 kts | 142° |
| 2026-05-07 21:23 | 34.98943 | 31.84652 | 37137 ft | 491 kts | 142° |
| 2026-05-07 21:23 | 34.93551 | 31.89800 | 37139 ft | 492 kts | 142° |
| 2026-05-07 21:24 | 34.88192 | 31.94909 | 37137 ft | 492 kts | 142° |
| 2026-05-07 21:24 | 34.83742 | 31.99146 | 37140 ft | 493 kts | 142° |
| 2026-05-07 21:25 | 34.78335 | 32.04286 | 37141 ft | 493 kts | 142° |
| 2026-05-07 21:25 | 34.73183 | 32.09178 | 37125 ft | 493 kts | 142° |
| 2026-05-07 21:26 | 34.67775 | 32.14300 | 37126 ft | 492 kts | 142° |
| 2026-05-07 21:26 | 34.62375 | 32.19407 | 37130 ft | 491 kts | 142° |
| 2026-05-07 21:27 | 34.56978 | 32.24502 | 37128 ft | 490 kts | 142° |
| 2026-05-07 21:27 | 34.51629 | 32.29544 | 37129 ft | 489 kts | 142° |
| 2026-05-07 21:28 | 34.46245 | 32.34610 | 37130 ft | 489 kts | 142° |
| 2026-05-07 21:28 | 34.40869 | 32.39662 | 37127 ft | 488 kts | 142° |
| 2026-05-07 21:29 | 34.35490 | 32.44708 | 37130 ft | 488 kts | 142° |
| 2026-05-07 21:29 | 34.30113 | 32.49742 | 37129 ft | 488 kts | 142° |
| 2026-05-07 21:30 | 34.24736 | 32.54769 | 37121 ft | 488 kts | 142° |
| 2026-05-07 21:30 | 34.19393 | 32.59755 | 37120 ft | 488 kts | 142° |
| 2026-05-07 21:31 | 34.14015 | 32.64768 | 37113 ft | 488 kts | 142° |
| 2026-05-07 21:31 | 34.08629 | 32.69772 | 37116 ft | 488 kts | 143° |
| 2026-05-07 21:32 | 34.03932 | 32.73538 | 37116 ft | 487 kts | 149° |
| 2026-05-07 21:32 | 33.98123 | 32.77772 | 37114 ft | 487 kts | 150° |
| 2026-05-07 21:33 | 33.92314 | 32.81994 | 37115 ft | 487 kts | 149° |
| 2026-05-07 21:33 | 33.86524 | 32.86267 | 36994 ft | 489 kts | 149° |
| 2026-05-07 21:34 | 33.83605 | 32.88435 | 36453 ft | 493 kts | 149° |
| 2026-05-07 21:34 | 33.80692 | 32.90599 | 35908 ft | 491 kts | 149° |
| 2026-05-07 21:34 | 33.77840 | 32.92718 | 35479 ft | 486 kts | 149° |
| 2026-05-07 21:34 | 33.74974 | 32.94845 | 35042 ft | 482 kts | 149° |
| 2026-05-07 21:35 | 33.72130 | 32.96953 | 34607 ft | 478 kts | 149° |
| 2026-05-07 21:35 | 33.69298 | 32.99048 | 34174 ft | 475 kts | 149° |
| 2026-05-07 21:35 | 33.66498 | 33.01119 | 33734 ft | 471 kts | 149° |
| 2026-05-07 21:35 | 33.63712 | 33.03178 | 33296 ft | 468 kts | 149° |
| 2026-05-07 21:36 | 33.60948 | 33.05218 | 32862 ft | 465 kts | 149° |
| 2026-05-07 21:36 | 33.58203 | 33.07242 | 32433 ft | 462 kts | 149° |
| 2026-05-07 21:36 | 33.55477 | 33.09252 | 32002 ft | 458 kts | 149° |
| 2026-05-07 21:36 | 33.52768 | 33.11249 | 31581 ft | 455 kts | 149° |
| 2026-05-07 21:37 | 33.50077 | 33.13229 | 31152 ft | 452 kts | 149° |
| 2026-05-07 21:37 | 33.47402 | 33.15196 | 30739 ft | 449 kts | 149° |
| 2026-05-07 21:37 | 33.44749 | 33.17146 | 30316 ft | 446 kts | 149° |
| 2026-05-07 21:37 | 33.42140 | 33.19061 | 29905 ft | 443 kts | 149° |
| 2026-05-07 21:38 | 33.39523 | 33.20983 | 29488 ft | 440 kts | 149° |
| 2026-05-07 21:38 | 33.36923 | 33.22889 | 29046 ft | 437 kts | 149° |
| 2026-05-07 21:38 | 33.34330 | 33.24787 | 28624 ft | 433 kts | 149° |
| 2026-05-07 21:38 | 33.31770 | 33.26662 | 28198 ft | 430 kts | 149° |
| 2026-05-07 21:39 | 33.29227 | 33.28524 | 27774 ft | 427 kts | 149° |
| 2026-05-07 21:39 | 33.26699 | 33.30373 | 27354 ft | 424 kts | 149° |
| 2026-05-07 21:39 | 33.24191 | 33.32206 | 26932 ft | 421 kts | 149° |
| 2026-05-07 21:39 | 33.21695 | 33.34030 | 26515 ft | 418 kts | 149° |
| 2026-05-07 21:40 | 33.19232 | 33.35827 | 26102 ft | 416 kts | 149° |
| 2026-05-07 21:40 | 33.16774 | 33.37620 | 25686 ft | 413 kts | 149° |
| 2026-05-07 21:40 | 33.14329 | 33.39402 | 25270 ft | 410 kts | 149° |
| 2026-05-07 21:40 | 33.11906 | 33.41168 | 24865 ft | 407 kts | 149° |
| 2026-05-07 21:41 | 33.09490 | 33.42927 | 24458 ft | 404 kts | 150° |
| 2026-05-07 21:41 | 33.07099 | 33.44668 | 24053 ft | 402 kts | 150° |
| 2026-05-07 21:41 | 33.04719 | 33.46398 | 23649 ft | 399 kts | 150° |
| 2026-05-07 21:41 | 33.02395 | 33.48086 | 23248 ft | 397 kts | 150° |
| 2026-05-07 21:42 | 33.00035 | 33.49799 | 22855 ft | 394 kts | 150° |
| 2026-05-07 21:42 | 32.97699 | 33.51494 | 22454 ft | 392 kts | 150° |
| 2026-05-07 21:42 | 32.95378 | 33.53178 | 22052 ft | 390 kts | 150° |
| 2026-05-07 21:42 | 32.93066 | 33.54853 | 21652 ft | 388 kts | 150° |
| 2026-05-07 21:43 | 32.90765 | 33.56520 | 21254 ft | 385 kts | 150° |
| 2026-05-07 21:43 | 32.88481 | 33.58174 | 20860 ft | 383 kts | 150° |
| 2026-05-07 21:43 | 32.86207 | 33.59819 | 20465 ft | 381 kts | 150° |
| 2026-05-07 21:43 | 32.83952 | 33.61450 | 20074 ft | 378 kts | 149° |
| 2026-05-07 21:44 | 32.81824 | 33.63278 | 19677 ft | 378 kts | 139° |
| 2026-05-07 21:44 | 32.79961 | 33.65471 | 19238 ft | 377 kts | 134° |
| 2026-05-07 21:44 | 32.78153 | 33.67734 | 18807 ft | 376 kts | 134° |
| 2026-05-07 21:44 | 32.76371 | 33.69986 | 18420 ft | 374 kts | 134° |
| 2026-05-07 21:45 | 32.74605 | 33.72205 | 18033 ft | 372 kts | 134° |
| 2026-05-07 21:45 | 32.72829 | 33.74423 | 17649 ft | 369 kts | 134° |
| 2026-05-07 21:45 | 32.71055 | 33.76623 | 17262 ft | 367 kts | 134° |
| 2026-05-07 21:45 | 32.69292 | 33.78802 | 16885 ft | 365 kts | 134° |
| 2026-05-07 21:46 | 32.67537 | 33.80965 | 16507 ft | 363 kts | 134° |
| 2026-05-07 21:46 | 32.65788 | 33.83118 | 16131 ft | 360 kts | 134° |
| 2026-05-07 21:46 | 32.64051 | 33.85254 | 15755 ft | 358 kts | 134° |
| 2026-05-07 21:46 | 32.62325 | 33.87375 | 15382 ft | 356 kts | 134° |
| 2026-05-07 21:47 | 32.60611 | 33.89483 | 15009 ft | 353 kts | 134° |
| 2026-05-07 21:47 | 32.58910 | 33.91572 | 14639 ft | 351 kts | 134° |
| 2026-05-07 21:47 | 32.57221 | 33.93644 | 14279 ft | 348 kts | 134° |
| 2026-05-07 21:47 | 32.55546 | 33.95705 | 13904 ft | 346 kts | 134° |
| 2026-05-07 21:48 | 32.53892 | 33.97763 | 13552 ft | 343 kts | 134° |
| 2026-05-07 21:48 | 32.52305 | 33.99746 | 13209 ft | 341 kts | 134° |
| 2026-05-07 21:48 | 32.50678 | 34.01780 | 12850 ft | 338 kts | 134° |
| 2026-05-07 21:48 | 32.49064 | 34.03795 | 12488 ft | 336 kts | 134° |
| 2026-05-07 21:49 | 32.47480 | 34.05769 | 12129 ft | 333 kts | 134° |
| 2026-05-07 21:49 | 32.45885 | 34.07757 | 11765 ft | 332 kts | 134° |
| 2026-05-07 21:49 | 32.44302 | 34.09727 | 11404 ft | 330 kts | 134° |
| 2026-05-07 21:49 | 32.42732 | 34.11699 | 11038 ft | 328 kts | 131° |
| 2026-05-07 21:50 | 32.41358 | 34.13836 | 10666 ft | 326 kts | 124° |
| 2026-05-07 21:50 | 32.40118 | 34.16067 | 10345 ft | 323 kts | 122° |
| 2026-05-07 21:50 | 32.38921 | 34.18269 | 10213 ft | 312 kts | 122° |
| 2026-05-07 21:50 | 32.37750 | 34.20393 | 10072 ft | 304 kts | 123° |
| 2026-05-07 21:51 | 32.36593 | 34.22453 | 9969 ft | 295 kts | 123° |
| 2026-05-07 21:51 | 32.35518 | 34.24345 | 9642 ft | 295 kts | 123° |
| 2026-05-07 21:51 | 32.34372 | 34.26348 | 9353 ft | 293 kts | 123° |
| 2026-05-07 21:51 | 32.33231 | 34.28337 | 9041 ft | 292 kts | 123° |
| 2026-05-07 21:52 | 32.32094 | 34.30312 | 8757 ft | 289 kts | 123° |
| 2026-05-07 21:52 | 32.30967 | 34.32271 | 8468 ft | 287 kts | 123° |
| 2026-05-07 21:52 | 32.29861 | 34.34192 | 8206 ft | 284 kts | 123° |
| 2026-05-07 21:52 | 32.28752 | 34.36116 | 7936 ft | 282 kts | 123° |
| 2026-05-07 21:53 | 32.27652 | 34.38024 | 7670 ft | 279 kts | 123° |
| 2026-05-07 21:53 | 32.26565 | 34.39910 | 7402 ft | 277 kts | 122° |
| 2026-05-07 21:53 | 32.26197 | 34.40547 | 7317 ft | 276 kts | 122° |
| 2026-05-07 21:53 | 32.25503 | 34.41749 | 7150 ft | 276 kts | 122° |
| 2026-05-07 21:54 | 32.24425 | 34.43614 | 6888 ft | 273 kts | 122° |
| 2026-05-07 21:54 | 32.23321 | 34.45433 | 6627 ft | 272 kts | 127° |
| 2026-05-07 21:54 | 32.22150 | 34.47117 | 6359 ft | 263 kts | 125° |
| 2026-05-07 21:54 | 32.21096 | 34.48868 | 6102 ft | 254 kts | 121° |
| 2026-05-07 21:55 | 32.20170 | 34.50578 | 5948 ft | 247 kts | 119° |
| 2026-05-07 21:55 | 32.19275 | 34.52290 | 5826 ft | 243 kts | 119° |
| 2026-05-07 21:55 | 32.18393 | 34.53987 | 5700 ft | 242 kts | 118° |
| 2026-05-07 21:55 | 32.17508 | 34.55695 | 5578 ft | 244 kts | 118° |
| 2026-05-07 21:56 | 32.16620 | 34.57401 | 5463 ft | 244 kts | 119° |
| 2026-05-07 21:56 | 32.15738 | 34.59094 | 5374 ft | 243 kts | 119° |
| 2026-05-07 21:56 | 32.14839 | 34.60820 | 5068 ft | 246 kts | 118° |
| 2026-05-07 21:56 | 32.13946 | 34.62538 | 4739 ft | 243 kts | 118° |
| 2026-05-07 21:57 | 32.13069 | 34.64222 | 4423 ft | 239 kts | 118° |
| 2026-05-07 21:57 | 32.12220 | 34.65858 | 4111 ft | 234 kts | 118° |
| 2026-05-07 21:57 | 32.11377 | 34.67482 | 3808 ft | 230 kts | 118° |
| 2026-05-07 21:57 | 32.10556 | 34.69062 | 3523 ft | 222 kts | 117° |
| 2026-05-07 21:58 | 32.09764 | 34.70586 | 3229 ft | 213 kts | 117° |
| 2026-05-07 21:58 | 32.09006 | 34.72044 | 2940 ft | 205 kts | 117° |
| 2026-05-07 21:58 | 32.08273 | 34.73460 | 2668 ft | 198 kts | 117° |
| 2026-05-07 21:58 | 32.07575 | 34.74804 | 2423 ft | 186 kts | 118° |
| 2026-05-07 21:59 | 32.06921 | 34.76065 | 2199 ft | 171 kts | 118° |
| 2026-05-07 21:59 | 32.06324 | 34.77218 | 1952 ft | 161 kts | 119° |
| 2026-05-07 21:59 | 32.05742 | 34.78341 | 1744 ft | 160 kts | 119° |
| 2026-05-07 21:59 | 32.05172 | 34.79440 | 1534 ft | 158 kts | 120° |
| 2026-05-07 22:00 | 32.04604 | 34.80538 | 1333 ft | 156 kts | 121° |
| 2026-05-07 22:00 | 32.04039 | 34.81627 | 1117 ft | 155 kts | 121° |
| 2026-05-07 22:00 | 32.03476 | 34.82712 | 923 ft | 155 kts | 121° |
| 2026-05-07 22:00 | 32.02914 | 34.83798 | 716 ft | 155 kts | 121° |
| 2026-05-07 22:01 | 32.02355 | 34.84881 | 499 ft | 155 kts | 121° |
| 2026-05-07 22:01 | 32.01788 | 34.85965 | 295 ft | 156 kts | 119° |
| 2026-05-07 22:01 | 32.01237 | 34.87032 | 132 ft | 150 kts | 121° |
| 2026-05-07 22:01 | 32.00729 | 34.88010 | 118 ft | 123 kts | 121° |
| 2026-05-07 22:02 | 32.00450 | 34.88522 | 122 ft | 37 kts | 134° |
| 2026-05-07 22:02 | 32.00334 | 34.88629 | 118 ft | 22 kts | 150° |
| 2026-05-07 22:02 | 32.00180 | 34.88702 | 117 ft | 25 kts | 168° |
| 2026-05-07 22:02 | 32.00104 | 34.88669 | 117 ft | 8 kts | 252° |
| 2026-05-07 22:03 | 32.00124 | 34.88590 | 117 ft | 14 kts | 298° |
| 2026-05-07 22:03 | 32.00190 | 34.88461 | 116 ft | 21 kts | 302° |
| 2026-05-07 22:03 | 32.00269 | 34.88313 | 119 ft | 21 kts | 302° |
| 2026-05-07 22:03 | 32.00344 | 34.88166 | 116 ft | 21 kts | 301° |
| 2026-05-07 22:04 | 32.00424 | 34.88017 | 117 ft | 22 kts | 300° |
| 2026-05-07 22:04 | 32.00503 | 34.87860 | 119 ft | 22 kts | 301° |
| 2026-05-07 22:04 | 32.00568 | 34.87713 | 119 ft | 17 kts | 273° |
| 2026-05-07 22:04 | 32.00512 | 34.87596 | 119 ft | 16 kts | 221° |
| 2026-05-07 22:05 | 32.00439 | 34.87571 | 119 ft | 3 kts | 209° |
| 2026-05-07 22:05 | 32.00426 | 34.87557 | 119 ft | 3 kts | 227° |
| 2026-05-07 22:05 | 32.00421 | 34.87551 | 119 ft | 0 kts | 227° |